Time;durP1;ratioP1;P1;durP2;ratioP2;P2;SDS_P1;SDS_P2;PMS_P1;PMS_P2;Temp;Humidity;BMP_temperature;BMP_pressure;BME280_temperature;BME280_humidity;BME280_pressure;Samples;Min_cycle;Max_cycle;Signal;HPM_P1;HPM_P2
2024/01/26 00:00:56;;;;;;;293.35;167.30;;;1.80;99.90;;;;;;5063251;28;20048;-75
2024/01/26 00:03:25;;;;;;;305.10;170.57;;;1.80;99.90;;;;;;5063253;28;20053;-75
2024/01/26 00:05:52;;;;;;;258.88;147.52;;;1.70;1.00;;;;;;5063272;28;20048;-75
2024/01/26 00:08:20;;;;;;;272.48;152.60;;;1.40;99.90;;;;;;5063175;28;20048;-75
2024/01/26 00:10:47;;;;;;;297.52;164.60;;;1.50;1.00;;;;;;5073574;28;20040;-74
2024/01/26 00:13:16;;;;;;;251.77;139.70;;;1.50;1.00;;;;;;5096206;28;20042;-77
2024/01/26 00:15:47;;;;;;;287.13;157.38;;;1.50;1.00;;;;;;5089968;28;20040;-74
2024/01/26 00:18:14;;;;;;;261.23;142.85;;;1.50;99.90;;;;;;5075687;28;20046;-75
2024/01/26 00:20:43;;;;;;;265.63;148.38;;;1.40;1.00;;;;;;5080224;28;20058;-74
2024/01/26 00:23:10;;;;;;;251.85;140.40;;;1.40;99.90;;;;;;5095182;28;20036;-76
2024/01/26 00:25:38;;;;;;;268.83;146.02;;;1.40;1.00;;;;;;5083576;28;20040;-75
2024/01/26 00:28:06;;;;;;;291.33;160.18;;;1.40;1.00;;;;;;5082208;28;20046;-75
2024/01/26 00:30:36;;;;;;;287.77;159.38;;;1.30;1.00;;;;;;5084097;28;20036;-74
2024/01/26 00:33:04;;;;;;;288.25;151.95;;;1.30;1.00;;;;;;5085746;28;20096;-74
2024/01/26 00:35:31;;;;;;;290.38;157.80;;;1.30;1.00;;;;;;5063254;28;20044;-74
2024/01/26 00:38:00;;;;;;;278.83;151.02;;;1.40;69.90;;;;;;5081564;28;20048;-74
2024/01/26 00:40:27;;;;;;;273.73;147.25;;;1.40;81.20;;;;;;5081361;28;20055;-74
2024/01/26 00:42:55;;;;;;;263.60;141.68;;;1.50;1.00;;;;;;5064534;28;20469;-74
2024/01/26 00:45:23;;;;;;;266.23;140.13;;;1.40;99.90;;;;;;5078902;28;20040;-73
2024/01/26 00:47:52;;;;;;;251.80;133.45;;;1.40;99.90;;;;;;5080197;28;20480;-74
2024/01/26 00:50:19;;;;;;;255.70;134.48;;;1.40;97.00;;;;;;5082222;28;20073;-76
2024/01/26 00:52:47;;;;;;;240.02;129.38;;;1.30;1.00;;;;;;5085252;28;20069;-75
2024/01/26 00:55:15;;;;;;;228.30;122.45;;;1.40;1.00;;;;;;5084988;28;20121;-75
2024/01/26 00:57:43;;;;;;;231.00;122.43;;;1.20;1.00;;;;;;5062803;28;20041;-76
2024/01/26 01:00:12;;;;;;;224.20;120.38;;;1.20;99.90;;;;;;5081274;28;20043;-77
2024/01/26 01:02:40;;;;;;;200.23;107.90;;;1.30;1.00;;;;;;5065336;28;20071;-75
2024/01/26 01:05:09;;;;;;;158.68;90.53;;;1.20;63.30;;;;;;5080605;28;20043;-76
2024/01/26 01:07:37;;;;;;;153.60;84.20;;;1.20;1.00;;;;;;5085145;28;20040;-75
2024/01/26 01:10:05;;;;;;;149.18;83.90;;;1.10;1.00;;;;;;5080418;28;20032;-75
2024/01/26 01:12:33;;;;;;;149.48;82.53;;;1.20;1.00;;;;;;5081807;28;20048;-76
2024/01/26 01:15:00;;;;;;;159.07;92.53;;;1.10;99.90;;;;;;5083381;28;20094;-75
2024/01/26 01:17:27;;;;;;;174.85;93.97;;;1.10;1.00;;;;;;5081987;28;20094;-74
2024/01/26 01:19:55;;;;;;;176.85;99.40;;;1.10;1.00;;;;;;5081741;28;20098;-74
2024/01/26 01:22:24;;;;;;;195.07;105.82;;;1.10;99.90;;;;;;5082145;28;20070;-76
2024/01/26 01:24:52;;;;;;;198.30;107.00;;;1.00;1.00;;;;;;5080574;28;20048;-74
2024/01/26 01:27:19;;;;;;;211.13;115.72;;;1.00;99.90;;;;;;5064860;28;20040;-74
2024/01/26 01:29:47;;;;;;;213.43;114.05;;;1.00;99.90;;;;;;5069214;28;20063;-74
2024/01/26 01:32:14;;;;;;;203.95;108.97;;;1.00;99.90;;;;;;5095545;28;20063;-77
2024/01/26 01:34:43;;;;;;;192.93;105.22;;;0.90;99.90;;;;;;5093158;28;20040;-75
2024/01/26 01:37:11;;;;;;;180.75;96.15;;;0.90;61.10;;;;;;5088327;28;20089;-75
2024/01/26 01:39:39;;;;;;;177.23;95.57;;;0.90;1.00;;;;;;5083218;28;20476;-74
2024/01/26 01:42:13;;;;;;;174.60;91.90;;;0.90;1.00;;;;;;5082608;28;20063;-74
2024/01/26 01:44:41;;;;;;;162.63;88.18;;;0.90;22.70;;;;;;5061767;28;20043;-76
2024/01/26 01:47:10;;;;;;;171.27;90.15;;;0.90;1.00;;;;;;5078860;28;20039;-75
2024/01/26 01:49:39;;;;;;;178.85;96.40;;;0.90;1.00;;;;;;5081106;28;20047;-75
2024/01/26 01:52:09;;;;;;;178.60;98.50;;;0.90;99.90;;;;;;5082413;28;20106;-76
2024/01/26 01:54:40;;;;;;;187.43;97.93;;;0.90;1.00;;;;;;5062524;28;20430;-76
2024/01/26 01:57:08;;;;;;;173.60;92.53;;;0.80;1.00;;;;;;5081122;28;20660;-75
2024/01/26 01:59:35;;;;;;;149.27;86.43;;;0.80;99.90;;;;;;5079104;28;20044;-77
2024/01/26 02:02:03;;;;;;;150.35;84.18;;;0.80;1.00;;;;;;5077121;28;20932;-76
2024/01/26 02:04:30;;;;;;;124.05;70.93;;;0.80;1.00;;;;;;5079881;28;20039;-76
2024/01/26 02:06:59;;;;;;;137.80;73.53;;;0.70;1.00;;;;;;5082492;28;20107;-76
2024/01/26 02:09:27;;;;;;;99.32;54.42;;;0.70;1.00;;;;;;5098862;28;20052;-77
2024/01/26 02:11:56;;;;;;;103.22;59.25;;;0.70;1.00;;;;;;5081307;28;20080;-77
2024/01/26 02:14:25;;;;;;;97.20;55.33;;;0.70;99.90;;;;;;5081402;28;20067;-75
2024/01/26 02:16:54;;;;;;;119.18;62.60;;;0.70;1.00;;;;;;5073458;28;20068;-77
2024/01/26 02:19:22;;;;;;;126.70;69.65;;;0.70;99.90;;;;;;5073188;28;20041;-74
2024/01/26 02:21:50;;;;;;;145.57;77.47;;;0.70;1.00;;;;;;5065767;28;20033;-77
2024/01/26 02:24:19;;;;;;;152.43;80.13;;;0.60;1.00;;;;;;5061294;28;20098;-76
2024/01/26 02:26:46;;;;;;;150.23;79.68;;;0.60;1.00;;;;;;5078581;28;20041;-76
2024/01/26 02:29:14;;;;;;;130.52;70.65;;;0.50;1.00;;;;;;5060633;28;20481;-76
2024/01/26 02:31:42;;;;;;;132.57;73.93;;;0.50;1.00;;;;;;5069408;28;20569;-74
2024/01/26 02:34:12;;;;;;;133.20;77.03;;;0.40;1.00;;;;;;5051181;28;20036;-75
2024/01/26 02:36:40;;;;;;;135.45;76.03;;;0.40;87.50;;;;;;5081640;28;20393;-76
2024/01/26 02:39:07;;;;;;;133.55;74.20;;;0.50;99.90;;;;;;5074128;28;20044;-77
2024/01/26 02:41:37;;;;;;;121.68;68.05;;;0.50;99.90;;;;;;5079497;28;20070;-74
2024/01/26 02:44:04;;;;;;;134.98;74.30;;;0.50;99.90;;;;;;5071161;28;20082;-76
2024/01/26 02:46:33;;;;;;;138.98;76.22;;;0.50;99.90;;;;;;5061883;28;20033;-74
2024/01/26 02:49:01;;;;;;;127.03;70.72;;;0.50;1.00;;;;;;5064567;28;20040;-76
2024/01/26 02:51:30;;;;;;;133.00;75.35;;;0.40;1.00;;;;;;5060697;28;20028;-75
2024/01/26 02:53:57;;;;;;;131.95;71.93;;;0.30;1.00;;;;;;5068658;28;20553;-74
2024/01/26 02:56:25;;;;;;;116.88;62.85;;;0.30;1.00;;;;;;5063150;28;20036;-76
2024/01/26 02:58:53;;;;;;;117.88;61.00;;;0.20;99.90;;;;;;5064701;28;20033;-74
2024/01/26 03:01:21;;;;;;;99.75;52.85;;;0.10;1.00;;;;;;5070276;28;20044;-75
2024/01/26 03:03:48;;;;;;;97.15;52.92;;;0.00;99.90;;;;;;5074687;28;20048;-75
2024/01/26 03:06:16;;;;;;;100.57;54.40;;;0.00;99.90;;;;;;5076730;28;20033;-74
2024/01/26 03:08:43;;;;;;;110.25;57.35;;;0.10;1.00;;;;;;5071695;28;20048;-74
2024/01/26 03:11:13;;;;;;;107.65;55.30;;;0.10;1.00;;;;;;5073561;28;20064;-76
2024/01/26 03:13:41;;;;;;;99.22;56.40;;;0.10;1.00;;;;;;5072880;28;20500;-75
2024/01/26 03:16:11;;;;;;;100.72;52.60;;;0.20;99.90;;;;;;5073773;28;20036;-76
2024/01/26 03:18:38;;;;;;;93.03;50.47;;;0.10;99.90;;;;;;5079579;28;20049;-75
2024/01/26 03:21:06;;;;;;;82.97;44.90;;;0.20;1.00;;;;;;5080658;28;20040;-75
2024/01/26 03:23:33;;;;;;;87.70;48.05;;;0.10;1.00;;;;;;5070817;28;20041;-76
2024/01/26 03:26:00;;;;;;;82.43;44.67;;;0.20;1.00;;;;;;5068793;28;20052;-75
2024/01/26 03:28:29;;;;;;;70.80;39.30;;;0.20;1.00;;;;;;5048657;28;20044;-74
2024/01/26 03:30:57;;;;;;;71.43;39.13;;;0.20;99.90;;;;;;5073238;28;20033;-75
2024/01/26 03:33:25;;;;;;;81.85;41.58;;;0.10;1.00;;;;;;5073235;28;20506;-75
2024/01/26 03:35:53;;;;;;;68.50;39.08;;;0.10;1.00;;;;;;5073961;28;20071;-75
2024/01/26 03:38:20;;;;;;;80.35;40.50;;;0.10;1.00;;;;;;5056074;28;20052;-74
2024/01/26 03:40:49;;;;;;;85.38;48.08;;;0.00;1.00;;;;;;5076970;28;20095;-75
2024/01/26 03:43:17;;;;;;;97.07;49.70;;;-0.10;29.00;;;;;;5070187;28;20438;-75
2024/01/26 03:45:44;;;;;;;93.78;48.50;;;0.10;1.00;;;;;;5061459;28;20049;-75
2024/01/26 03:48:12;;;;;;;96.22;50.10;;;0.00;99.90;;;;;;5064255;28;20033;-75
2024/01/26 03:50:40;;;;;;;89.85;50.78;;;0.00;99.90;;;;;;5062920;28;20044;-75
2024/01/26 03:53:08;;;;;;;90.13;49.05;;;0.00;1.00;;;;;;5061577;28;20033;-76
2024/01/26 03:55:36;;;;;;;89.97;50.28;;;0.00;1.00;;;;;;5063598;28;20048;-76
2024/01/26 03:58:03;;;;;;;106.13;57.17;;;0.10;1.00;;;;;;5062311;28;20051;-75
2024/01/26 04:00:32;;;;;;;103.63;56.45;;;0.10;1.00;;;;;;5061279;28;20059;-75
2024/01/26 04:02:59;;;;;;;91.80;49.78;;;0.10;99.90;;;;;;5060086;28;20049;-75
2024/01/26 04:05:27;;;;;;;86.95;47.25;;;-0.10;1.00;;;;;;5063050;28;20032;-75
2024/01/26 04:07:56;;;;;;;91.03;46.72;;;0.00;1.00;;;;;;5063806;28;20072;-75
2024/01/26 04:10:23;;;;;;;110.32;51.38;;;0.00;1.00;;;;;;5060267;28;20045;-74
2024/01/26 04:12:51;;;;;;;132.65;64.70;;;0.00;1.00;;;;;;5063122;28;20040;-75
2024/01/26 04:15:18;;;;;;;107.55;56.47;;;0.00;1.00;;;;;;5062509;28;20067;-75
2024/01/26 04:17:45;;;;;;;111.97;56.50;;;0.00;99.90;;;;;;5063669;28;20036;-76
2024/01/26 04:20:13;;;;;;;99.60;53.80;;;0.00;1.00;;;;;;5061133;28;20473;-76
2024/01/26 04:22:40;;;;;;;123.38;65.18;;;0.00;1.00;;;;;;5062109;28;20048;-77
2024/01/26 04:25:10;;;;;;;120.38;62.92;;;0.00;1.00;;;;;;5062139;28;20087;-76
2024/01/26 04:27:38;;;;;;;120.65;62.22;;;-0.10;1.00;;;;;;5067638;28;20054;-75
2024/01/26 04:30:07;;;;;;;110.80;55.58;;;-0.10;1.00;;;;;;5076534;28;20025;-75
2024/01/26 04:32:34;;;;;;;104.85;57.47;;;-0.10;1.00;;;;;;5087110;28;20052;-76
2024/01/26 04:35:02;;;;;;;111.85;61.42;;;-0.10;1.00;;;;;;5086074;28;20028;-75
2024/01/26 04:37:30;;;;;;;120.22;65.82;;;-0.10;1.00;;;;;;5080600;28;20068;-75
2024/01/26 04:39:57;;;;;;;111.63;63.03;;;-0.20;99.90;;;;;;5068624;28;20090;-74
2024/01/26 04:42:26;;;;;;;113.38;59.38;;;-0.20;1.00;;;;;;5078758;28;20128;-75
2024/01/26 04:44:55;;;;;;;117.57;65.10;;;-0.30;91.10;;;;;;5077720;28;20053;-75
2024/01/26 04:47:23;;;;;;;125.15;68.47;;;-0.20;1.00;;;;;;5069771;28;20127;-75
2024/01/26 04:49:50;;;;;;;134.00;77.57;;;-0.20;1.00;;;;;;5066109;28;20107;-73
2024/01/26 04:52:17;;;;;;;150.68;85.55;;;-0.30;1.00;;;;;;5065816;28;20381;-75
2024/01/26 04:54:46;;;;;;;145.23;82.65;;;-0.30;1.00;;;;;;5062570;28;20037;-75
2024/01/26 04:57:15;;;;;;;136.20;75.57;;;-0.30;1.00;;;;;;5064238;28;20062;-75
2024/01/26 04:59:43;;;;;;;139.23;78.32;;;-0.40;1.00;;;;;;5062267;28;20045;-76
2024/01/26 05:02:11;;;;;;;112.47;62.95;;;-0.40;1.00;;;;;;5046919;28;20548;-74
2024/01/26 05:04:38;;;;;;;109.47;64.07;;;-0.40;1.00;;;;;;5063191;28;20480;-75
2024/01/26 05:07:07;;;;;;;109.47;61.33;;;-0.40;8.80;;;;;;5061115;28;20041;-76
2024/01/26 05:09:34;;;;;;;115.20;61.80;;;-0.40;99.90;;;;;;5040779;28;20075;-77
2024/01/26 05:12:02;;;;;;;118.22;64.85;;;-0.40;99.90;;;;;;5057149;28;20408;-77
2024/01/26 05:14:29;;;;;;;110.25;61.33;;;-0.50;1.00;;;;;;5063771;28;20051;-77
2024/01/26 05:16:58;;;;;;;132.13;74.05;;;-0.40;1.00;;;;;;5059220;28;20049;-75
2024/01/26 05:19:25;;;;;;;143.40;83.68;;;-0.40;99.90;;;;;;5077145;28;20036;-77
2024/01/26 05:21:53;;;;;;;138.95;81.88;;;-0.50;96.70;;;;;;5079345;28;20040;-75
2024/01/26 05:24:20;;;;;;;140.43;80.00;;;-0.50;1.00;;;;;;5078678;28;20041;-77
2024/01/26 05:26:47;;;;;;;135.18;77.35;;;-0.50;1.00;;;;;;5080045;28;20041;-75
2024/01/26 05:29:16;;;;;;;139.30;79.75;;;-0.40;1.00;;;;;;5080945;28;20071;-76
2024/01/26 05:31:43;;;;;;;176.00;93.60;;;-0.50;99.90;;;;;;5063650;28;20072;-76
2024/01/26 05:34:13;;;;;;;193.75;101.95;;;-0.50;99.90;;;;;;5074336;28;20045;-76
2024/01/26 05:36:42;;;;;;;161.07;89.25;;;-0.50;1.00;;;;;;5080572;28;20045;-76
2024/01/26 05:39:10;;;;;;;153.57;86.50;;;-0.40;1.00;;;;;;5070075;28;20047;-75
2024/01/26 05:41:38;;;;;;;149.05;88.03;;;-0.40;1.00;;;;;;5081204;28;20025;-76
2024/01/26 05:44:06;;;;;;;153.75;88.70;;;-0.30;1.00;;;;;;5081813;28;20039;-75
2024/01/26 05:46:33;;;;;;;130.10;74.70;;;-0.30;1.00;;;;;;5084183;28;20040;-74
2024/01/26 05:49:01;;;;;;;124.95;74.80;;;-0.40;99.90;;;;;;5084158;28;20060;-75
2024/01/26 05:51:29;;;;;;;126.10;73.05;;;-0.40;99.90;;;;;;5067779;28;20052;-75
2024/01/26 05:53:57;;;;;;;130.82;77.75;;;-0.50;1.00;;;;;;5082124;28;20037;-75
2024/01/26 05:56:24;;;;;;;122.15;73.00;;;-0.60;1.00;;;;;;5072990;28;20040;-74
2024/01/26 05:58:52;;;;;;;142.77;82.28;;;-0.60;1.00;;;;;;5083059;28;20046;-75
2024/01/26 06:01:20;;;;;;;153.38;86.30;;;-0.60;1.00;;;;;;5076651;28;20148;-75
2024/01/26 06:03:47;;;;;;;149.55;84.75;;;-0.60;99.90;;;;;;5065729;28;20041;-73
2024/01/26 06:06:15;;;;;;;162.48;91.50;;;-0.60;99.90;;;;;;5062173;28;20059;-75
2024/01/26 06:08:44;;;;;;;169.15;95.35;;;-0.80;1.00;;;;;;5061878;28;20548;-75
2024/01/26 06:11:11;;;;;;;162.50;90.85;;;-0.80;1.00;;;;;;5058101;28;20121;-75
2024/01/26 06:13:40;;;;;;;152.75;89.10;;;-0.70;99.90;;;;;;5059578;28;20420;-73
2024/01/26 06:16:07;;;;;;;168.15;94.75;;;-0.70;1.00;;;;;;5060239;28;20456;-75
2024/01/26 06:18:35;;;;;;;198.13;110.78;;;-0.70;99.90;;;;;;5060751;28;20586;-75
2024/01/26 06:21:02;;;;;;;244.82;131.63;;;-0.60;1.00;;;;;;5059243;28;20048;-77
2024/01/26 06:23:30;;;;;;;225.10;121.70;;;-0.60;1.00;;;;;;5055939;28;20086;-76
2024/01/26 06:25:58;;;;;;;182.32;101.97;;;-0.50;1.00;;;;;;5060969;28;20036;-75
2024/01/26 06:28:26;;;;;;;180.70;101.43;;;-0.40;1.00;;;;;;5062125;28;20048;-75
2024/01/26 06:30:53;;;;;;;185.90;103.95;;;-0.50;1.00;;;;;;5059729;28;20072;-76
2024/01/26 06:33:20;;;;;;;176.65;99.07;;;-0.70;99.90;;;;;;5041533;28;20037;-75
2024/01/26 06:35:48;;;;;;;158.90;88.57;;;-0.70;76.60;;;;;;5061942;28;20049;-76
2024/01/26 06:38:15;;;;;;;185.60;99.07;;;-0.60;99.90;;;;;;5060460;28;20385;-76
2024/01/26 06:40:44;;;;;;;186.50;101.68;;;-0.60;67.20;;;;;;5060066;28;20029;-76
2024/01/26 06:43:16;;;;;;;183.68;101.97;;;-0.70;1.00;;;;;;5058476;28;20033;-78
2024/01/26 06:45:44;;;;;;;208.63;114.85;;;-0.70;1.00;;;;;;5041905;28;20048;-76
2024/01/26 06:48:14;;;;;;;215.27;119.75;;;-0.70;1.00;;;;;;5061290;28;20051;-76
2024/01/26 06:50:42;;;;;;;215.35;119.00;;;-0.50;1.00;;;;;;5063868;28;20056;-75
2024/01/26 06:53:10;;;;;;;212.45;118.13;;;-0.50;1.00;;;;;;5073067;28;20036;-76
2024/01/26 06:55:38;;;;;;;214.48;117.30;;;-0.40;99.90;;;;;;5075555;28;20119;-75
2024/01/26 06:58:05;;;;;;;223.93;116.68;;;-0.30;83.00;;;;;;5068698;28;20037;-76
2024/01/26 07:00:35;;;;;;;209.80;116.35;;;-0.20;99.90;;;;;;5059706;28;20542;-74
2024/01/26 07:03:03;;;;;;;193.77;108.65;;;-0.20;99.90;;;;;;5059285;28;20032;-74
2024/01/26 07:05:31;;;;;;;175.63;100.60;;;-0.10;31.50;;;;;;5063769;28;20075;-76
2024/01/26 07:07:58;;;;;;;158.27;92.70;;;0.00;1.00;;;;;;5063345;28;20119;-74
2024/01/26 07:10:25;;;;;;;164.40;93.45;;;0.10;1.00;;;;;;5063383;28;20045;-76
2024/01/26 07:12:55;;;;;;;172.35;95.80;;;0.30;1.00;;;;;;5061250;28;20049;-77
2024/01/26 07:15:22;;;;;;;198.23;111.20;;;0.50;1.00;;;;;;5060727;28;20067;-76
2024/01/26 07:17:51;;;;;;;196.32;112.22;;;0.50;1.00;;;;;;5060177;28;20492;-75
2024/01/26 07:20:20;;;;;;;217.80;120.60;;;0.60;1.00;;;;;;5061433;28;20037;-75
2024/01/26 07:22:47;;;;;;;228.30;128.27;;;0.70;99.90;;;;;;5042111;28;20106;-74
2024/01/26 07:25:19;;;;;;;219.48;122.75;;;0.80;99.90;;;;;;5061765;28;20037;-74
2024/01/26 07:27:46;;;;;;;225.23;124.43;;;1.00;99.90;;;;;;5045060;28;20045;-76
2024/01/26 07:30:15;;;;;;;211.27;122.93;;;1.20;1.00;;;;;;5060854;28;20052;-75
2024/01/26 07:32:42;;;;;;;215.20;121.03;;;1.20;1.00;;;;;;5059165;28;20528;-75
2024/01/26 07:35:12;;;;;;;210.13;114.57;;;1.20;1.00;;;;;;5062354;28;20040;-75
2024/01/26 07:37:40;;;;;;;202.52;115.20;;;1.40;99.90;;;;;;5060928;28;20558;-74
2024/01/26 07:40:09;;;;;;;198.82;112.28;;;1.40;1.00;;;;;;5064515;28;20079;-75
2024/01/26 07:42:38;;;;;;;175.85;103.22;;;1.50;99.90;;;;;;5057822;28;20119;-74
2024/01/26 07:45:06;;;;;;;179.93;101.97;;;1.60;1.00;;;;;;5059832;28;20581;-76
2024/01/26 07:47:34;;;;;;;157.68;90.90;;;1.70;1.00;;;;;;5058341;28;20055;-75
2024/01/26 07:50:02;;;;;;;169.02;96.45;;;1.80;1.00;;;;;;5060060;28;20045;-75
2024/01/26 07:52:31;;;;;;;154.65;90.57;;;1.80;1.00;;;;;;5057334;28;20157;-75
2024/01/26 07:54:59;;;;;;;149.35;84.50;;;1.70;1.00;;;;;;5062411;28;20493;-78
2024/01/26 07:57:27;;;;;;;165.00;88.35;;;1.80;99.90;;;;;;5058929;28;20041;-76
2024/01/26 07:59:54;;;;;;;161.90;89.47;;;1.90;99.90;;;;;;5058305;28;20555;-75
2024/01/26 08:06:18;;;;;;;157.60;85.85;;;2.00;1.00;;;;;;4995286;28;20086;-77
2024/01/26 08:09:28;;;;;;;140.80;78.97;;;2.30;99.90;;;;;;4980859;28;20050;-76
2024/01/26 08:12:24;;;;;;;;;;;;;;;;;;;;;
2024/01/26 08:15:03;;;;;;;140.82;78.63;;;2.70;1.00;;;;;;4981992;28;20142;-76
2024/01/26 08:31:31;;;;;;;155.32;85.85;;;3.10;1.00;;;;;;5111842;28;20044;-75
2024/01/26 08:33:58;;;;;;;152.88;85.70;;;3.20;1.00;;;;;;5113968;28;20038;-75
2024/01/26 08:36:25;;;;;;;136.07;77.90;;;3.20;1.00;;;;;;5120484;27;20047;-75
2024/01/26 08:38:54;;;;;;;132.45;72.85;;;3.20;1.00;;;;;;5122802;27;20059;-75
2024/01/26 08:41:22;;;;;;;127.97;68.55;;;3.30;1.00;;;;;;5125378;27;20031;-75
2024/01/26 08:43:49;;;;;;;109.78;61.95;;;3.50;1.00;;;;;;5126830;27;20044;-75
2024/01/26 08:46:17;;;;;;;123.57;70.20;;;3.80;1.00;;;;;;5123160;27;20040;-76
2024/01/26 08:48:46;;;;;;;116.75;64.68;;;4.00;99.90;;;;;;5124782;27;20074;-75
2024/01/26 08:51:15;;;;;;;122.88;70.50;;;4.10;1.00;;;;;;5126562;27;20040;-75
2024/01/26 08:53:44;;;;;;;125.20;67.30;;;4.00;54.80;;;;;;5125014;27;20085;-76
2024/01/26 08:56:12;;;;;;;120.68;64.45;;;4.10;99.90;;;;;;5121623;27;20035;-76
2024/01/26 08:58:39;;;;;;;115.60;59.85;;;4.10;1.00;;;;;;5123932;27;20046;-74
2024/01/26 09:01:07;;;;;;;107.43;57.83;;;4.30;99.90;;;;;;5130573;27;20047;-76
2024/01/26 09:03:34;;;;;;;115.50;63.65;;;4.50;99.90;;;;;;5126864;27;20047;-76
2024/01/26 09:06:03;;;;;;;110.78;59.53;;;4.50;1.00;;;;;;5125549;27;20050;-75
2024/01/26 09:08:30;;;;;;;113.50;60.38;;;4.70;1.00;;;;;;5110328;27;20040;-77
2024/01/26 09:10:58;;;;;;;119.40;61.83;;;4.80;1.00;;;;;;5135229;27;20043;-74
2024/01/26 09:13:25;;;;;;;100.40;55.88;;;4.90;1.00;;;;;;5134292;27;20056;-75
2024/01/26 09:15:54;;;;;;;106.05;57.60;;;4.90;1.00;;;;;;5133257;27;20036;-75
2024/01/26 09:18:21;;;;;;;97.75;53.78;;;5.10;1.00;;;;;;5129085;27;20039;-77
2024/01/26 09:20:49;;;;;;;96.05;51.42;;;5.20;1.00;;;;;;5123417;27;20077;-76
2024/01/26 09:23:19;;;;;;;98.10;51.50;;;5.30;1.00;;;;;;5123443;27;20437;-76
2024/01/26 09:25:46;;;;;;;95.38;52.38;;;5.40;1.00;;;;;;5122585;27;20077;-74
2024/01/26 09:28:14;;;;;;;94.78;53.38;;;5.50;1.00;;;;;;5123143;27;20092;-74
2024/01/26 09:30:41;;;;;;;101.78;53.75;;;5.60;1.00;;;;;;5121543;27;20070;-75
2024/01/26 09:33:09;;;;;;;102.88;56.15;;;5.80;99.90;;;;;;5123308;27;20027;-74
2024/01/26 09:35:36;;;;;;;107.53;58.70;;;5.90;99.90;;;;;;5123169;27;20039;-74
2024/01/26 09:38:04;;;;;;;109.10;58.85;;;5.90;99.90;;;;;;5122316;27;20057;-75
2024/01/26 09:40:33;;;;;;;104.25;58.03;;;6.00;99.90;;;;;;5121558;27;20035;-75
2024/01/26 09:43:01;;;;;;;109.65;62.90;;;6.20;99.90;;;;;;5122791;27;20043;-75
2024/01/26 09:45:29;;;;;;;131.15;65.53;;;6.30;99.90;;;;;;5129906;27;20057;-75
2024/01/26 09:48:01;;;;;;;122.25;66.35;;;6.50;99.90;;;;;;5124903;27;20376;-74
2024/01/26 09:50:28;;;;;;;120.07;67.32;;;6.60;92.60;;;;;;5120267;27;20038;-75
2024/01/26 09:52:58;;;;;;;118.72;65.05;;;6.70;35.70;;;;;;5121536;27;20046;-75
2024/01/26 09:55:26;;;;;;;116.88;63.08;;;6.80;1.40;;;;;;5122906;27;20040;-74
2024/01/26 09:57:56;;;;;;;115.50;64.22;;;6.90;1.00;;;;;;5123723;27;20032;-76
2024/01/26 10:00:24;;;;;;;100.55;58.50;;;7.00;1.00;;;;;;5125186;27;20040;-74
2024/01/26 10:02:51;;;;;;;110.25;57.70;;;7.20;1.00;;;;;;5124890;27;20035;-75
2024/01/26 10:05:19;;;;;;;111.30;59.83;;;7.40;1.00;;;;;;5124101;27;20097;-74
2024/01/26 10:07:47;;;;;;;98.05;51.42;;;7.50;1.00;;;;;;5123604;27;20040;-74
2024/01/26 10:10:15;;;;;;;93.18;48.33;;;7.60;1.00;;;;;;5132166;27;20042;-74
2024/01/26 10:12:42;;;;;;;97.15;51.70;;;7.80;1.00;;;;;;5137208;27;20043;-75
2024/01/26 10:15:13;;;;;;;88.32;47.55;;;7.90;1.00;;;;;;5127408;27;20066;-75
2024/01/26 10:17:40;;;;;;;86.47;46.55;;;8.10;1.00;;;;;;5120516;27;20188;-75
2024/01/26 10:20:09;;;;;;;67.85;37.00;;;8.30;1.00;;;;;;5120120;27;20487;-75
2024/01/26 10:22:38;;;;;;;61.20;32.58;;;8.40;1.00;;;;;;5121672;27;20035;-74
2024/01/26 10:25:07;;;;;;;58.97;30.42;;;8.50;1.00;;;;;;5123536;27;20126;-75
2024/01/26 10:27:34;;;;;;;75.22;38.92;;;8.60;1.00;;;;;;5122766;27;20126;-76
2024/01/26 10:30:02;;;;;;;62.38;34.33;;;8.60;1.00;;;;;;5122349;27;20051;-74
2024/01/26 10:32:32;;;;;;;49.45;26.05;;;8.70;1.00;;;;;;5127366;27;20406;-76
2024/01/26 10:35:01;;;;;;;40.83;20.25;;;8.80;1.00;;;;;;5106411;27;20039;-76
2024/01/26 10:37:30;;;;;;;48.53;23.70;;;8.70;1.00;;;;;;5122865;27;20043;-76
2024/01/26 10:39:58;;;;;;;48.55;25.60;;;8.80;1.00;;;;;;5118514;27;20043;-76
2024/01/26 10:42:29;;;;;;;50.70;25.08;;;8.90;1.00;;;;;;5124118;27;20043;-75
2024/01/26 10:45:00;;;;;;;54.35;27.10;;;9.00;1.00;;;;;;5122143;27;20051;-76
2024/01/26 10:47:28;;;;;;;46.17;23.58;;;9.10;1.00;;;;;;5123618;27;20039;-75
2024/01/26 10:50:10;;;;;;;49.63;23.15;;;9.10;1.00;;;;;;5103126;28;20046;-77
2024/01/26 10:58:11;;;;;;;;;;;;;;;;;;;;;
2024/01/26 11:01:30;;;;;;;52.63;27.63;;;9.20;1.00;;;;;;5068520;28;20059;-78
2024/01/26 11:19:24;;;;;;;49.67;23.08;;;9.50;1.00;;;;;;5259711;22;20974;-74
2024/01/26 11:21:51;;;;;;;47.45;25.88;;;9.50;1.00;;;;;;5090750;28;20064;-74
2024/01/26 11:24:20;;;;;;;53.70;29.45;;;9.40;1.00;;;;;;5093015;28;20044;-75
2024/01/26 11:26:57;;;;;;;57.97;28.20;;;9.50;1.00;;;;;;5099525;28;20064;-75
2024/01/26 11:29:32;;;;;;;47.25;25.23;;;9.60;1.00;;;;;;5098872;28;20398;-75
2024/01/26 11:31:59;;;;;;;49.75;26.60;;;9.60;1.00;;;;;;5101176;28;20119;-75
2024/01/26 11:34:29;;;;;;;51.40;25.23;;;9.70;1.00;;;;;;5081923;28;20044;-74
2024/01/26 11:37:12;;;;;;;47.25;23.88;;;9.80;1.00;;;;;;5104730;28;20035;-74
2024/01/26 11:39:40;;;;;;;52.50;25.38;;;9.80;1.00;;;;;;5104378;28;20556;-75
2024/01/26 11:42:11;;;;;;;46.95;24.50;;;9.80;1.00;;;;;;5107431;28;20043;-74
2024/01/26 11:44:41;;;;;;;56.65;24.02;;;9.80;1.00;;;;;;5110005;28;20078;-76
2024/01/26 11:47:09;;;;;;;43.60;21.67;;;9.80;1.00;;;;;;5112099;28;20039;-74
2024/01/26 11:49:40;;;;;;;39.90;19.70;;;9.90;1.00;;;;;;5107702;28;20089;-74
2024/01/26 11:52:07;;;;;;;39.33;20.10;;;10.00;1.00;;;;;;5105408;28;20499;-75
2024/01/26 11:54:35;;;;;;;36.33;19.45;;;10.00;1.00;;;;;;5103698;28;20547;-75
2024/01/26 11:57:03;;;;;;;35.85;17.45;;;10.10;1.00;;;;;;5104755;28;20048;-75
2024/01/26 11:59:30;;;;;;;40.75;16.25;;;10.00;1.00;;;;;;5103922;28;20138;-74
2024/01/26 12:01:57;;;;;;;36.63;16.88;;;10.00;1.00;;;;;;5106369;28;20101;-75
2024/01/26 12:04:25;;;;;;;37.35;16.88;;;10.00;1.00;;;;;;5105486;28;20089;-75
2024/01/26 12:06:54;;;;;;;28.85;14.60;;;10.10;1.00;;;;;;5102967;28;20032;-76
2024/01/26 12:09:21;;;;;;;32.92;15.60;;;10.10;1.00;;;;;;5104297;28;20487;-75
2024/01/26 12:11:49;;;;;;;30.38;15.57;;;10.10;1.00;;;;;;5106234;28;20491;-75
2024/01/26 12:14:17;;;;;;;33.45;15.57;;;10.10;1.00;;;;;;5102721;28;20088;-76
2024/01/26 12:16:44;;;;;;;32.03;16.92;;;10.20;1.00;;;;;;5105710;28;20105;-76
2024/01/26 12:19:12;;;;;;;33.78;17.02;;;10.20;1.00;;;;;;5097720;28;20555;-74
2024/01/26 12:21:39;;;;;;;35.70;17.55;;;10.20;1.00;;;;;;5116162;28;20044;-75
2024/01/26 12:24:12;;;;;;;42.10;18.17;;;10.30;1.00;;;;;;5113067;28;20040;-76
2024/01/26 12:26:39;;;;;;;43.50;19.70;;;10.20;1.00;;;;;;5108573;28;20083;-75
2024/01/26 12:29:09;;;;;;;42.08;21.02;;;10.30;1.00;;;;;;5112598;28;20619;-75
2024/01/26 12:31:37;;;;;;;41.95;20.30;;;10.30;1.00;;;;;;5112417;28;20036;-76
2024/01/26 12:34:11;;;;;;;39.35;19.48;;;10.40;1.00;;;;;;5108593;28;20123;-73
2024/01/26 12:36:39;;;;;;;45.95;19.95;;;10.50;1.00;;;;;;5102444;28;20032;-76
2024/01/26 12:39:06;;;;;;;49.88;22.05;;;10.50;1.00;;;;;;5103657;28;20114;-73
2024/01/26 12:41:35;;;;;;;51.97;24.58;;;10.60;1.00;;;;;;5104458;28;20039;-76
2024/01/26 12:44:03;;;;;;;40.45;20.77;;;10.50;1.00;;;;;;5105307;28;20448;-76
2024/01/26 12:46:31;;;;;;;40.85;20.25;;;10.50;1.00;;;;;;5115515;28;20040;-74
2024/01/26 12:48:58;;;;;;;43.47;19.25;;;10.50;1.00;;;;;;5103997;28;20040;-75
2024/01/26 12:51:25;;;;;;;37.28;17.08;;;10.50;1.00;;;;;;5101036;28;20071;-73
2024/01/26 12:53:53;;;;;;;41.58;18.15;;;10.50;1.00;;;;;;5103882;28;20040;-75
2024/01/26 12:56:21;;;;;;;37.25;16.95;;;10.50;1.00;;;;;;5086675;28;20063;-75
2024/01/26 12:58:50;;;;;;;38.85;17.40;;;10.50;1.00;;;;;;5112564;28;20071;-75
2024/01/26 13:01:22;;;;;;;33.75;15.73;;;10.60;1.00;;;;;;5114723;28;20043;-75
2024/01/26 13:03:49;;;;;;;35.97;16.58;;;10.60;1.00;;;;;;5117281;28;20047;-75
2024/01/26 13:06:17;;;;;;;33.28;15.18;;;10.60;1.00;;;;;;5120087;28;20044;-75
2024/01/26 13:08:45;;;;;;;27.55;13.35;;;10.70;1.00;;;;;;5090208;28;20418;-75
2024/01/26 13:11:13;;;;;;;33.35;14.32;;;10.70;1.00;;;;;;5087101;28;20399;-74
2024/01/26 13:13:41;;;;;;;28.23;12.48;;;10.70;1.00;;;;;;5101778;28;20094;-75
2024/01/26 13:16:09;;;;;;;32.40;15.57;;;10.70;1.00;;;;;;5100776;28;20031;-75
2024/01/26 13:18:40;;;;;;;35.83;15.27;;;10.70;1.00;;;;;;5103236;28;20055;-73